Reynoldsburg, OH (43068)

12:34 AM EST on March 07, 2015 (GMT -0500)
Timber Creek | Change Station
CLOSE
Current Station
Personal Weather Station
Location: Reynoldsburg, OH
Elevation: 926 ft
Nearby Weather Stations

Elev 926 ft 39.98 °N, 82.81 °W | Updated 44 seconds ago

Clear
Clear
18.1 °F
Feels Like 11 °F
N
4.5
Wind Variable Wind from West
Gusts 7.6 mph

Today
High -- | Low -- °F
--% Chance of Precip.
Yesterday
High -- | Low -- °F
Precip. -- in
6:55 AM 6:29 PM
Full, 98% visible
Pressure 30.37 in
Visibility 10.0 miles
Clouds Clear
Windchill 11 °F
Dew Point 12 °F
Humidity 75%
Rainfall 0.00 in
Snow Depth Not available.
UV 0 out of 12
Pollen 1.00 out of 12
Air Quality Not available.
Flu Activity Not available.
METAR KCMH 070451Z 20008KT 10SM CLR M07/M13 A3033 RMK AO2 SLP284 T10721128 410501156

More Conditions Fewer Conditions

Pressure 30.37 in
Visibility 10.0 miles
Clouds Clear
Windchill 11 °F
Dew Point 12 °F
Humidity 75%
Rainfall 0.00 in
Snow Depth Not available.
UV 0 out of 12
Pollen 1.00 out of 12
Air Quality Not available.
Flu Activity Not available.
METAR KCMH 070451Z 20008KT 10SM CLR M07/M13 A3033 RMK AO2 SLP284 T10721128 410501156

More Conditions Fewer Conditions

10-Day Weather Forecast

Almanac

Astronomy

Mar. 07, 2015 Rise Set
Actual Time
Civil Twilight
Nautical Twilight
Astronomical Twilight
Moon
Length of Visible Light
Length of Day
Tomorrow will be .
, % of the Moon is Illuminated

Today's Extremes

State Highs State Lows

Community

WunderPhotos

Upload Photos

1,803,551 photos uploaded!

WunderBlogs® & News

Nearby

Air Quality

  Air Quality AQ Index Pollutant
Not available.

Snow Depth

Station Depth Elevation

Earthquake Activity

City Distance Mag. Time & Date
Minimum magnitude displayed is 2.5.

Coastal Water Temperatures

Place Temperature

Nearby Weather Stations